Kiona, Washington
Current Conditions -  °F | °C
As of 6:53 PM on Monday 20 Oct 2014 (Local Time) from KPSC Reporting Station
Light Rain Light Rain  
Wind Chill: 59°   Ceiling: 7000
Heat Index: 59°   Visibility: 10mi
Dew Point: 49°   Wind: 13mph
Humidity: 69%   Direction: 250°WSW
Pressure: 29.82"   Gusts: NA
Location:  46.2458°N, 119.519°W
Report Text: KPSC 210153Z 25011KT 10SM -RA OVC070 15/09 A2982 RMK AO2 RAB24E35B52 SLP096 P0000 T01500094
Loading
Personal Weather Stations






























Interactive Weather Map
Tropical Storm Tracking
New forecast layout! Learn more

10-Day Weather Forecast

Advertisements
Track Severe Weather on mobile